sensor_id;sensor_type;location;lat;lon;timestamp;temperature;humidity
12166;DHT22;6146;48.128;11.476;2024-01-30T00:01:22;0.20;99.90
12166;DHT22;6146;48.128;11.476;2024-01-30T00:03:47;0.20;99.90
12166;DHT22;6146;48.128;11.476;2024-01-30T00:06:13;0.20;99.90
12166;DHT22;6146;48.128;11.476;2024-01-30T00:08:39;0.20;99.90
12166;DHT22;6146;48.128;11.476;2024-01-30T00:11:04;0.20;99.90
12166;DHT22;6146;48.128;11.476;2024-01-30T00:13:30;0.20;99.90
12166;DHT22;6146;48.128;11.476;2024-01-30T00:15:55;0.10;99.90
12166;DHT22;6146;48.128;11.476;2024-01-30T00:18:21;0.00;99.90
12166;DHT22;6146;48.128;11.476;2024-01-30T00:20:46;0.00;99.90
12166;DHT22;6146;48.128;11.476;2024-01-30T00:23:12;0.00;99.90
12166;DHT22;6146;48.128;11.476;2024-01-30T00:25:38;0.00;99.90
12166;DHT22;6146;48.128;11.476;2024-01-30T00:28:04;0.00;99.90
12166;DHT22;6146;48.128;11.476;2024-01-30T00:30:29;-0.10;99.90
12166;DHT22;6146;48.128;11.476;2024-01-30T00:32:55;-0.20;99.90
12166;DHT22;6146;48.128;11.476;2024-01-30T00:35:20;-0.20;99.90
12166;DHT22;6146;48.128;11.476;2024-01-30T00:37:48;-0.20;99.90
12166;DHT22;6146;48.128;11.476;2024-01-30T00:40:13;-0.10;99.90
12166;DHT22;6146;48.128;11.476;2024-01-30T00:42:42;-0.10;99.90
12166;DHT22;6146;48.128;11.476;2024-01-30T00:45:13;-0.20;99.90
12166;DHT22;6146;48.128;11.476;2024-01-30T00:47:38;-0.20;99.90
12166;DHT22;6146;48.128;11.476;2024-01-30T00:50:04;-0.20;99.90
12166;DHT22;6146;48.128;11.476;2024-01-30T00:52:30;-0.20;99.90
12166;DHT22;6146;48.128;11.476;2024-01-30T00:54:56;-0.30;99.90
12166;DHT22;6146;48.128;11.476;2024-01-30T00:57:21;-0.30;99.90
12166;DHT22;6146;48.128;11.476;2024-01-30T00:59:47;-0.30;99.90
12166;DHT22;6146;48.128;11.476;2024-01-30T01:02:12;-0.30;99.90
12166;DHT22;6146;48.128;11.476;2024-01-30T01:04:39;-0.30;99.90
12166;DHT22;6146;48.128;11.476;2024-01-30T01:07:04;-0.30;99.90
12166;DHT22;6146;48.128;11.476;2024-01-30T01:09:30;-0.30;99.90
12166;DHT22;6146;48.128;11.476;2024-01-30T01:11:55;-0.30;99.90
12166;DHT22;6146;48.128;11.476;2024-01-30T01:14:21;-0.30;99.90
12166;DHT22;6146;48.128;11.476;2024-01-30T01:16:46;-0.30;99.90
12166;DHT22;6146;48.128;11.476;2024-01-30T01:19:12;-0.30;99.90
12166;DHT22;6146;48.128;11.476;2024-01-30T01:21:37;-0.30;99.90
12166;DHT22;6146;48.128;11.476;2024-01-30T01:24:03;-0.30;99.90
12166;DHT22;6146;48.128;11.476;2024-01-30T01:26:29;-0.30;99.90
12166;DHT22;6146;48.128;11.476;2024-01-30T01:28:54;-0.30;99.90
12166;DHT22;6146;48.128;11.476;2024-01-30T01:31:20;-0.30;99.90
12166;DHT22;6146;48.128;11.476;2024-01-30T01:33:50;-0.30;99.90
12166;DHT22;6146;48.128;11.476;2024-01-30T01:36:15;-0.30;99.90
12166;DHT22;6146;48.128;11.476;2024-01-30T01:38:41;-0.40;99.90
12166;DHT22;6146;48.128;11.476;2024-01-30T01:41:06;0.50;99.90
12166;DHT22;6146;48.128;11.476;2024-01-30T01:43:32;-0.40;99.90
12166;DHT22;6146;48.128;11.476;2024-01-30T01:45:58;-0.50;99.90
12166;DHT22;6146;48.128;11.476;2024-01-30T01:48:23;-0.50;99.90
12166;DHT22;6146;48.128;11.476;2024-01-30T01:50:49;-0.50;99.90
12166;DHT22;6146;48.128;11.476;2024-01-30T01:53:15;-0.50;99.90
12166;DHT22;6146;48.128;11.476;2024-01-30T01:55:41;-0.50;99.90
12166;DHT22;6146;48.128;11.476;2024-01-30T01:58:07;1.20;99.90
12166;DHT22;6146;48.128;11.476;2024-01-30T02:00:35;-0.50;99.90
12166;DHT22;6146;48.128;11.476;2024-01-30T02:03:02;-0.50;99.90
12166;DHT22;6146;48.128;11.476;2024-01-30T02:05:29;-0.50;99.90
12166;DHT22;6146;48.128;11.476;2024-01-30T02:07:56;-0.50;99.90
12166;DHT22;6146;48.128;11.476;2024-01-30T02:10:21;-0.50;99.90
12166;DHT22;6146;48.128;11.476;2024-01-30T02:12:48;-0.60;99.90
12166;DHT22;6146;48.128;11.476;2024-01-30T02:15:14;-0.60;99.90
12166;DHT22;6146;48.128;11.476;2024-01-30T02:17:40;-0.60;99.90
12166;DHT22;6146;48.128;11.476;2024-01-30T02:20:05;-0.60;99.90
12166;DHT22;6146;48.128;11.476;2024-01-30T02:22:33;-0.60;99.90
12166;DHT22;6146;48.128;11.476;2024-01-30T02:24:59;-0.60;99.90
12166;DHT22;6146;48.128;11.476;2024-01-30T02:27:25;-0.60;99.90
12166;DHT22;6146;48.128;11.476;2024-01-30T02:29:50;-0.60;99.90
12166;DHT22;6146;48.128;11.476;2024-01-30T02:32:16;-0.60;99.90
12166;DHT22;6146;48.128;11.476;2024-01-30T02:34:41;-0.60;99.90
12166;DHT22;6146;48.128;11.476;2024-01-30T02:37:07;-0.60;99.90
12166;DHT22;6146;48.128;11.476;2024-01-30T02:39:32;-0.60;99.90
12166;DHT22;6146;48.128;11.476;2024-01-30T02:41:58;-0.60;99.90
12166;DHT22;6146;48.128;11.476;2024-01-30T02:44:24;-0.70;99.90
12166;DHT22;6146;48.128;11.476;2024-01-30T02:46:49;-0.60;99.90
12166;DHT22;6146;48.128;11.476;2024-01-30T02:49:15;-0.60;99.90
12166;DHT22;6146;48.128;11.476;2024-01-30T02:51:40;-0.60;99.90
12166;DHT22;6146;48.128;11.476;2024-01-30T02:54:06;-0.60;99.90
12166;DHT22;6146;48.128;11.476;2024-01-30T02:56:31;-0.60;99.90
12166;DHT22;6146;48.128;11.476;2024-01-30T02:58:57;-0.70;99.90
12166;DHT22;6146;48.128;11.476;2024-01-30T03:01:22;-0.70;99.90
12166;DHT22;6146;48.128;11.476;2024-01-30T03:03:50;-0.70;99.90
12166;DHT22;6146;48.128;11.476;2024-01-30T03:06:15;-0.70;99.90
12166;DHT22;6146;48.128;11.476;2024-01-30T03:08:43;-0.70;99.90
12166;DHT22;6146;48.128;11.476;2024-01-30T03:11:08;-0.60;99.90
12166;DHT22;6146;48.128;11.476;2024-01-30T03:13:34;-0.60;99.90
12166;DHT22;6146;48.128;11.476;2024-01-30T03:15:59;-0.70;99.90
12166;DHT22;6146;48.128;11.476;2024-01-30T03:18:25;-0.70;99.90
12166;DHT22;6146;48.128;11.476;2024-01-30T03:20:50;-0.70;99.90
12166;DHT22;6146;48.128;11.476;2024-01-30T03:23:16;-0.70;99.90
12166;DHT22;6146;48.128;11.476;2024-01-30T03:25:41;-0.70;99.90
12166;DHT22;6146;48.128;11.476;2024-01-30T03:28:07;-0.80;99.90
12166;DHT22;6146;48.128;11.476;2024-01-30T03:30:34;-0.80;99.90
12166;DHT22;6146;48.128;11.476;2024-01-30T03:33:00;-0.80;99.90
12166;DHT22;6146;48.128;11.476;2024-01-30T03:35:25;-0.80;99.90
12166;DHT22;6146;48.128;11.476;2024-01-30T03:37:51;-0.80;99.90
12166;DHT22;6146;48.128;11.476;2024-01-30T03:40:17;-0.80;99.90
12166;DHT22;6146;48.128;11.476;2024-01-30T03:42:42;-0.90;99.90
12166;DHT22;6146;48.128;11.476;2024-01-30T03:45:08;-0.90;99.90
12166;DHT22;6146;48.128;11.476;2024-01-30T03:47:34;-0.90;99.90
12166;DHT22;6146;48.128;11.476;2024-01-30T03:49:59;-0.90;99.90
12166;DHT22;6146;48.128;11.476;2024-01-30T03:52:25;-0.90;99.90
12166;DHT22;6146;48.128;11.476;2024-01-30T03:54:50;-0.90;99.90
12166;DHT22;6146;48.128;11.476;2024-01-30T03:57:16;-0.90;99.90
12166;DHT22;6146;48.128;11.476;2024-01-30T03:59:42;-0.90;99.90
12166;DHT22;6146;48.128;11.476;2024-01-30T04:02:08;-0.90;99.90
12166;DHT22;6146;48.128;11.476;2024-01-30T04:04:34;-1.00;99.90
12166;DHT22;6146;48.128;11.476;2024-01-30T04:07:00;-1.00;99.90
12166;DHT22;6146;48.128;11.476;2024-01-30T04:09:26;-1.00;99.90
12166;DHT22;6146;48.128;11.476;2024-01-30T04:11:53;-1.00;99.90
12166;DHT22;6146;48.128;11.476;2024-01-30T04:14:19;-1.00;99.90
12166;DHT22;6146;48.128;11.476;2024-01-30T04:16:45;-1.00;99.90
12166;DHT22;6146;48.128;11.476;2024-01-30T04:19:10;-1.00;99.90
12166;DHT22;6146;48.128;11.476;2024-01-30T04:21:36;-1.10;99.90
12166;DHT22;6146;48.128;11.476;2024-01-30T04:24:01;-1.10;99.90
12166;DHT22;6146;48.128;11.476;2024-01-30T04:26:27;-0.80;99.90
12166;DHT22;6146;48.128;11.476;2024-01-30T04:28:52;-1.10;99.90
12166;DHT22;6146;48.128;11.476;2024-01-30T04:31:18;-1.10;99.90
12166;DHT22;6146;48.128;11.476;2024-01-30T04:33:44;-1.10;99.90
12166;DHT22;6146;48.128;11.476;2024-01-30T04:36:09;-1.10;99.90
12166;DHT22;6146;48.128;11.476;2024-01-30T04:38:38;-1.10;99.90
12166;DHT22;6146;48.128;11.476;2024-01-30T04:41:04;-1.00;99.90
12166;DHT22;6146;48.128;11.476;2024-01-30T04:43:30;-1.00;99.90
12166;DHT22;6146;48.128;11.476;2024-01-30T04:45:56;-1.00;99.90
12166;DHT22;6146;48.128;11.476;2024-01-30T04:48:21;-1.00;99.90
12166;DHT22;6146;48.128;11.476;2024-01-30T04:50:47;-1.00;99.90
12166;DHT22;6146;48.128;11.476;2024-01-30T04:53:12;-1.00;99.90
12166;DHT22;6146;48.128;11.476;2024-01-30T04:55:38;-1.00;99.90
12166;DHT22;6146;48.128;11.476;2024-01-30T04:58:03;-1.00;99.90
12166;DHT22;6146;48.128;11.476;2024-01-30T05:00:29;-1.00;99.90
12166;DHT22;6146;48.128;11.476;2024-01-30T05:02:55;-1.10;99.90
12166;DHT22;6146;48.128;11.476;2024-01-30T05:05:21;-1.10;99.90
12166;DHT22;6146;48.128;11.476;2024-01-30T05:07:47;-1.10;99.90
12166;DHT22;6146;48.128;11.476;2024-01-30T05:10:13;-1.10;99.90
12166;DHT22;6146;48.128;11.476;2024-01-30T05:12:39;-1.10;99.90
12166;DHT22;6146;48.128;11.476;2024-01-30T05:15:05;-1.10;99.90
12166;DHT22;6146;48.128;11.476;2024-01-30T05:17:30;-1.10;99.90
12166;DHT22;6146;48.128;11.476;2024-01-30T05:19:56;-1.20;99.90
12166;DHT22;6146;48.128;11.476;2024-01-30T05:22:22;-1.20;99.90
12166;DHT22;6146;48.128;11.476;2024-01-30T05:24:47;-1.20;99.90
12166;DHT22;6146;48.128;11.476;2024-01-30T05:27:13;-1.20;99.90
12166;DHT22;6146;48.128;11.476;2024-01-30T05:29:41;-1.20;99.90
12166;DHT22;6146;48.128;11.476;2024-01-30T05:32:06;-1.20;99.90
12166;DHT22;6146;48.128;11.476;2024-01-30T05:34:32;0.80;99.90
12166;DHT22;6146;48.128;11.476;2024-01-30T05:36:58;-1.10;99.90
12166;DHT22;6146;48.128;11.476;2024-01-30T05:39:23;-1.10;99.90
12166;DHT22;6146;48.128;11.476;2024-01-30T05:41:49;-1.10;99.90
12166;DHT22;6146;48.128;11.476;2024-01-30T05:44:15;-1.10;99.90
12166;DHT22;6146;48.128;11.476;2024-01-30T05:46:40;-1.10;99.90
12166;DHT22;6146;48.128;11.476;2024-01-30T05:49:06;-1.10;99.90
12166;DHT22;6146;48.128;11.476;2024-01-30T05:51:31;-1.10;99.90
12166;DHT22;6146;48.128;11.476;2024-01-30T05:53:57;-1.10;99.90
12166;DHT22;6146;48.128;11.476;2024-01-30T05:56:22;-1.10;99.90
12166;DHT22;6146;48.128;11.476;2024-01-30T05:58:48;-1.10;99.90
12166;DHT22;6146;48.128;11.476;2024-01-30T06:01:15;-1.10;99.90
12166;DHT22;6146;48.128;11.476;2024-01-30T06:03:41;-1.00;99.90
12166;DHT22;6146;48.128;11.476;2024-01-30T06:06:09;-1.00;99.90
12166;DHT22;6146;48.128;11.476;2024-01-30T06:08:34;-1.00;99.90
12166;DHT22;6146;48.128;11.476;2024-01-30T06:11:00;-0.90;99.90
12166;DHT22;6146;48.128;11.476;2024-01-30T06:13:26;-0.90;99.90
12166;DHT22;6146;48.128;11.476;2024-01-30T06:15:52;-0.90;99.90
12166;DHT22;6146;48.128;11.476;2024-01-30T06:18:17;-0.90;99.90
12166;DHT22;6146;48.128;11.476;2024-01-30T06:20:43;-1.00;99.90
12166;DHT22;6146;48.128;11.476;2024-01-30T06:23:08;-0.90;99.90
12166;DHT22;6146;48.128;11.476;2024-01-30T06:25:34;-0.90;99.90
12166;DHT22;6146;48.128;11.476;2024-01-30T06:27:59;-0.90;99.90
12166;DHT22;6146;48.128;11.476;2024-01-30T06:30:25;-0.90;99.90
12166;DHT22;6146;48.128;11.476;2024-01-30T06:32:51;-0.90;99.90
12166;DHT22;6146;48.128;11.476;2024-01-30T06:35:16;-0.90;99.90
12166;DHT22;6146;48.128;11.476;2024-01-30T06:37:43;-0.80;99.90
12166;DHT22;6146;48.128;11.476;2024-01-30T06:40:09;-0.80;99.90
12166;DHT22;6146;48.128;11.476;2024-01-30T06:42:35;-0.80;99.90
12166;DHT22;6146;48.128;11.476;2024-01-30T06:45:00;-0.80;99.90
12166;DHT22;6146;48.128;11.476;2024-01-30T06:47:26;-0.80;99.90
12166;DHT22;6146;48.128;11.476;2024-01-30T06:49:52;-0.80;99.90
12166;DHT22;6146;48.128;11.476;2024-01-30T06:52:17;-0.70;99.90
12166;DHT22;6146;48.128;11.476;2024-01-30T06:54:43;-0.70;99.90
12166;DHT22;6146;48.128;11.476;2024-01-30T06:57:08;-0.70;99.90
12166;DHT22;6146;48.128;11.476;2024-01-30T06:59:37;-0.70;99.90
12166;DHT22;6146;48.128;11.476;2024-01-30T07:02:07;-0.60;99.90
12166;DHT22;6146;48.128;11.476;2024-01-30T07:04:33;-0.60;99.90
12166;DHT22;6146;48.128;11.476;2024-01-30T07:06:58;0.00;99.90
12166;DHT22;6146;48.128;11.476;2024-01-30T07:09:24;-0.40;99.90
12166;DHT22;6146;48.128;11.476;2024-01-30T07:11:49;-0.30;99.90
12166;DHT22;6146;48.128;11.476;2024-01-30T07:14:15;-0.30;99.90
12166;DHT22;6146;48.128;11.476;2024-01-30T07:16:40;-0.20;99.90
12166;DHT22;6146;48.128;11.476;2024-01-30T07:19:06;-0.10;99.90
12166;DHT22;6146;48.128;11.476;2024-01-30T07:21:34;0.00;99.90
12166;DHT22;6146;48.128;11.476;2024-01-30T07:24:00;0.10;99.90
12166;DHT22;6146;48.128;11.476;2024-01-30T07:26:26;0.10;99.90
12166;DHT22;6146;48.128;11.476;2024-01-30T07:28:51;0.30;99.90
12166;DHT22;6146;48.128;11.476;2024-01-30T07:31:17;0.40;99.90
12166;DHT22;6146;48.128;11.476;2024-01-30T07:33:42;0.40;99.90
12166;DHT22;6146;48.128;11.476;2024-01-30T07:36:08;0.60;99.90
12166;DHT22;6146;48.128;11.476;2024-01-30T07:38:34;0.70;99.90
12166;DHT22;6146;48.128;11.476;2024-01-30T07:40:59;0.80;99.90
12166;DHT22;6146;48.128;11.476;2024-01-30T07:43:25;1.00;99.90
12166;DHT22;6146;48.128;11.476;2024-01-30T07:45:51;1.50;99.90
12166;DHT22;6146;48.128;11.476;2024-01-30T07:48:16;3.10;99.90
12166;DHT22;6146;48.128;11.476;2024-01-30T07:50:42;5.30;99.90
12166;DHT22;6146;48.128;11.476;2024-01-30T07:53:08;7.60;99.90
12166;DHT22;6146;48.128;11.476;2024-01-30T07:55:33;9.50;99.90
12166;DHT22;6146;48.128;11.476;2024-01-30T07:57:59;11.00;99.90
12166;DHT22;6146;48.128;11.476;2024-01-30T08:00:25;12.50;99.90
12166;DHT22;6146;48.128;11.476;2024-01-30T08:02:51;13.70;96.00
12166;DHT22;6146;48.128;11.476;2024-01-30T08:05:19;14.70;92.00
12166;DHT22;6146;48.128;11.476;2024-01-30T08:07:47;15.60;86.00
12166;DHT22;6146;48.128;11.476;2024-01-30T08:10:13;16.30;80.40
12166;DHT22;6146;48.128;11.476;2024-01-30T08:12:39;17.00;74.90
12166;DHT22;6146;48.128;11.476;2024-01-30T08:15:05;17.60;71.20
12166;DHT22;6146;48.128;11.476;2024-01-30T08:17:31;18.20;67.50
12166;DHT22;6146;48.128;11.476;2024-01-30T08:19:56;18.30;66.30
12166;DHT22;6146;48.128;11.476;2024-01-30T08:22:22;18.10;65.10
12166;DHT22;6146;48.128;11.476;2024-01-30T08:24:47;18.10;64.70
12166;DHT22;6146;48.128;11.476;2024-01-30T08:27:13;18.20;63.80
12166;DHT22;6146;48.128;11.476;2024-01-30T08:29:39;18.30;63.20
12166;DHT22;6146;48.128;11.476;2024-01-30T08:32:05;18.80;61.40
12166;DHT22;6146;48.128;11.476;2024-01-30T08:34:31;18.80;60.50
12166;DHT22;6146;48.128;11.476;2024-01-30T08:36:56;18.20;62.50
12166;DHT22;6146;48.128;11.476;2024-01-30T08:39:22;18.30;62.30
12166;DHT22;6146;48.128;11.476;2024-01-30T08:41:48;18.10;62.20
12166;DHT22;6146;48.128;11.476;2024-01-30T08:44:13;17.90;62.50
12166;DHT22;6146;48.128;11.476;2024-01-30T08:46:39;17.90;63.50
12166;DHT22;6146;48.128;11.476;2024-01-30T08:49:04;18.40;62.20
12166;DHT22;6146;48.128;11.476;2024-01-30T08:51:30;18.90;61.20
12166;DHT22;6146;48.128;11.476;2024-01-30T08:53:56;18.70;61.00
12166;DHT22;6146;48.128;11.476;2024-01-30T08:56:22;19.60;57.90
12166;DHT22;6146;48.128;11.476;2024-01-30T08:58:47;19.10;59.10
12166;DHT22;6146;48.128;11.476;2024-01-30T09:01:14;19.00;59.40
12166;DHT22;6146;48.128;11.476;2024-01-30T09:03:39;19.10;59.00
12166;DHT22;6146;48.128;11.476;2024-01-30T09:06:10;19.30;58.40
12166;DHT22;6146;48.128;11.476;2024-01-30T09:08:35;19.70;57.60
12166;DHT22;6146;48.128;11.476;2024-01-30T09:11:02;20.50;55.80
12166;DHT22;6146;48.128;11.476;2024-01-30T09:13:27;20.90;53.60
12166;DHT22;6146;48.128;11.476;2024-01-30T09:15:53;20.80;54.00
12166;DHT22;6146;48.128;11.476;2024-01-30T09:18:18;21.30;52.50
12166;DHT22;6146;48.128;11.476;2024-01-30T09:20:44;22.00;50.20
12166;DHT22;6146;48.128;11.476;2024-01-30T09:23:13;22.30;48.80
12166;DHT22;6146;48.128;11.476;2024-01-30T09:25:38;22.70;47.90
12166;DHT22;6146;48.128;11.476;2024-01-30T09:28:04;22.90;47.10
12166;DHT22;6146;48.128;11.476;2024-01-30T09:30:30;22.60;47.10
12166;DHT22;6146;48.128;11.476;2024-01-30T09:32:55;22.80;47.30
12166;DHT22;6146;48.128;11.476;2024-01-30T09:35:21;22.80;46.00
12166;DHT22;6146;48.128;11.476;2024-01-30T09:37:47;22.70;45.40
12166;DHT22;6146;48.128;11.476;2024-01-30T09:40:13;23.40;45.40
12166;DHT22;6146;48.128;11.476;2024-01-30T09:42:40;22.90;44.00
12166;DHT22;6146;48.128;11.476;2024-01-30T09:45:09;23.10;45.00
12166;DHT22;6146;48.128;11.476;2024-01-30T09:47:45;22.40;42.90
12166;DHT22;6146;48.128;11.476;2024-01-30T09:50:13;22.00;44.90
12166;DHT22;6146;48.128;11.476;2024-01-30T09:52:39;21.70;45.80
12166;DHT22;6146;48.128;11.476;2024-01-30T09:55:06;22.00;46.40
12166;DHT22;6146;48.128;11.476;2024-01-30T09:57:32;23.20;43.70
12166;DHT22;6146;48.128;11.476;2024-01-30T09:59:58;24.10;42.60
12166;DHT22;6146;48.128;11.476;2024-01-30T10:02:23;24.00;41.10
12166;DHT22;6146;48.128;11.476;2024-01-30T10:04:50;24.30;41.10
12166;DHT22;6146;48.128;11.476;2024-01-30T10:07:16;24.80;40.40
12166;DHT22;6146;48.128;11.476;2024-01-30T10:09:41;24.80;39.90
12166;DHT22;6146;48.128;11.476;2024-01-30T10:12:09;23.80;40.20
12166;DHT22;6146;48.128;11.476;2024-01-30T10:14:38;24.00;40.00
12166;DHT22;6146;48.128;11.476;2024-01-30T10:17:03;25.00;37.90
12166;DHT22;6146;48.128;11.476;2024-01-30T10:19:31;24.20;38.50
12166;DHT22;6146;48.128;11.476;2024-01-30T10:21:56;24.80;38.20
12166;DHT22;6146;48.128;11.476;2024-01-30T10:24:26;25.00;38.50
12166;DHT22;6146;48.128;11.476;2024-01-30T10:26:52;25.30;38.20
12166;DHT22;6146;48.128;11.476;2024-01-30T10:29:18;26.60;35.80
12166;DHT22;6146;48.128;11.476;2024-01-30T10:31:43;27.10;34.30
12166;DHT22;6146;48.128;11.476;2024-01-30T10:34:09;28.00;32.90
12166;DHT22;6146;48.128;11.476;2024-01-30T10:36:41;28.00;32.50
12166;DHT22;6146;48.128;11.476;2024-01-30T10:39:08;27.10;31.50
12166;DHT22;6146;48.128;11.476;2024-01-30T10:41:43;26.60;32.00
12166;DHT22;6146;48.128;11.476;2024-01-30T10:44:09;26.70;32.00
12166;DHT22;6146;48.128;11.476;2024-01-30T10:46:38;27.20;32.00
12166;DHT22;6146;48.128;11.476;2024-01-30T10:49:05;28.00;31.10
12166;DHT22;6146;48.128;11.476;2024-01-30T10:51:32;28.50;29.70
12166;DHT22;6146;48.128;11.476;2024-01-30T10:53:58;29.30;29.50
12166;DHT22;6146;48.128;11.476;2024-01-30T10:56:24;28.90;28.60
12166;DHT22;6146;48.128;11.476;2024-01-30T10:58:51;28.90;28.90
12166;DHT22;6146;48.128;11.476;2024-01-30T11:01:21;29.00;28.90
12166;DHT22;6146;48.128;11.476;2024-01-30T11:03:53;28.20;29.10
12166;DHT22;6146;48.128;11.476;2024-01-30T11:06:22;29.40;28.40
12166;DHT22;6146;48.128;11.476;2024-01-30T11:09:10;29.80;27.80
12166;DHT22;6146;48.128;11.476;2024-01-30T11:11:50;29.90;27.50
12166;DHT22;6146;48.128;11.476;2024-01-30T11:14:16;30.20;27.80
12166;DHT22;6146;48.128;11.476;2024-01-30T11:16:42;30.70;27.10
12166;DHT22;6146;48.128;11.476;2024-01-30T11:19:11;30.60;26.90
12166;DHT22;6146;48.128;11.476;2024-01-30T11:21:42;30.90;27.20
12166;DHT22;6146;48.128;11.476;2024-01-30T11:24:08;31.30;26.70
12166;DHT22;6146;48.128;11.476;2024-01-30T11:26:34;31.30;27.30
12166;DHT22;6146;48.128;11.476;2024-01-30T11:29:03;30.70;26.80
12166;DHT22;6146;48.128;11.476;2024-01-30T11:31:29;29.80;27.40
12166;DHT22;6146;48.128;11.476;2024-01-30T11:33:56;28.70;28.30
12166;DHT22;6146;48.128;11.476;2024-01-30T11:36:25;28.30;29.00
12166;DHT22;6146;48.128;11.476;2024-01-30T11:38:51;29.00;28.30
12166;DHT22;6146;48.128;11.476;2024-01-30T11:41:17;29.60;28.20
12166;DHT22;6146;48.128;11.476;2024-01-30T11:43:50;30.10;27.60
12166;DHT22;6146;48.128;11.476;2024-01-30T11:46:16;30.60;26.90
12166;DHT22;6146;48.128;11.476;2024-01-30T11:48:41;31.30;26.40
12166;DHT22;6146;48.128;11.476;2024-01-30T11:51:07;31.10;26.10
12166;DHT22;6146;48.128;11.476;2024-01-30T11:53:33;30.20;26.60
12166;DHT22;6146;48.128;11.476;2024-01-30T11:55:58;30.40;26.70
12166;DHT22;6146;48.128;11.476;2024-01-30T11:58:27;30.70;26.50
12166;DHT22;6146;48.128;11.476;2024-01-30T12:00:54;30.60;26.30
12166;DHT22;6146;48.128;11.476;2024-01-30T12:03:21;30.70;25.60
12166;DHT22;6146;48.128;11.476;2024-01-30T12:05:46;31.10;25.50
12166;DHT22;6146;48.128;11.476;2024-01-30T12:08:16;31.70;25.00
12166;DHT22;6146;48.128;11.476;2024-01-30T12:10:42;31.40;25.50
12166;DHT22;6146;48.128;11.476;2024-01-30T12:13:07;31.20;25.30
12166;DHT22;6146;48.128;11.476;2024-01-30T12:15:33;30.40;25.60
12166;DHT22;6146;48.128;11.476;2024-01-30T12:18:05;29.50;26.00
12166;DHT22;6146;48.128;11.476;2024-01-30T12:20:31;28.70;26.60
12166;DHT22;6146;48.128;11.476;2024-01-30T12:22:57;27.10;28.10
12166;DHT22;6146;48.128;11.476;2024-01-30T12:25:22;25.90;29.20
12166;DHT22;6146;48.128;11.476;2024-01-30T12:27:50;25.50;30.10
12166;DHT22;6146;48.128;11.476;2024-01-30T12:30:17;25.30;29.50
12166;DHT22;6146;48.128;11.476;2024-01-30T12:32:43;25.30;29.80
12166;DHT22;6146;48.128;11.476;2024-01-30T12:35:16;26.00;29.40
12166;DHT22;6146;48.128;11.476;2024-01-30T12:37:43;26.60;28.60
12166;DHT22;6146;48.128;11.476;2024-01-30T12:40:10;26.70;28.40
12166;DHT22;6146;48.128;11.476;2024-01-30T12:42:37;26.60;29.00
12166;DHT22;6146;48.128;11.476;2024-01-30T12:45:03;26.80;29.40
12166;DHT22;6146;48.128;11.476;2024-01-30T12:47:30;26.90;28.10
12166;DHT22;6146;48.128;11.476;2024-01-30T12:49:55;26.60;28.90
12166;DHT22;6146;48.128;11.476;2024-01-30T12:52:22;26.20;28.40
12166;DHT22;6146;48.128;11.476;2024-01-30T12:54:48;25.50;29.30
12166;DHT22;6146;48.128;11.476;2024-01-30T12:57:14;25.50;29.80
12166;DHT22;6146;48.128;11.476;2024-01-30T12:59:40;26.00;29.50
12166;DHT22;6146;48.128;11.476;2024-01-30T13:02:05;26.60;28.50
12166;DHT22;6146;48.128;11.476;2024-01-30T13:04:32;26.40;28.20
12166;DHT22;6146;48.128;11.476;2024-01-30T13:06:57;27.30;28.50
12166;DHT22;6146;48.128;11.476;2024-01-30T13:09:23;27.90;27.00
12166;DHT22;6146;48.128;11.476;2024-01-30T13:11:49;28.80;26.80
12166;DHT22;6146;48.128;11.476;2024-01-30T13:14:16;29.70;26.50
12166;DHT22;6146;48.128;11.476;2024-01-30T13:16:42;30.40;26.10
12166;DHT22;6146;48.128;11.476;2024-01-30T13:19:07;30.70;26.20
12166;DHT22;6146;48.128;11.476;2024-01-30T13:21:33;30.50;25.10
12166;DHT22;6146;48.128;11.476;2024-01-30T13:23:58;30.00;25.50
12166;DHT22;6146;48.128;11.476;2024-01-30T13:26:24;29.30;26.60
12166;DHT22;6146;48.128;11.476;2024-01-30T13:28:49;28.20;27.30
12166;DHT22;6146;48.128;11.476;2024-01-30T13:31:15;26.90;28.20
12166;DHT22;6146;48.128;11.476;2024-01-30T13:33:41;25.40;28.00
12166;DHT22;6146;48.128;11.476;2024-01-30T13:36:08;24.50;29.60
12166;DHT22;6146;48.128;11.476;2024-01-30T13:38:34;23.90;31.30
12166;DHT22;6146;48.128;11.476;2024-01-30T13:41:00;23.20;31.10
12166;DHT22;6146;48.128;11.476;2024-01-30T13:43:26;22.60;32.70
12166;DHT22;6146;48.128;11.476;2024-01-30T13:45:51;22.50;34.10
12166;DHT22;6146;48.128;11.476;2024-01-30T13:48:17;22.30;33.30
12166;DHT22;6146;48.128;11.476;2024-01-30T13:50:43;22.10;34.50
12166;DHT22;6146;48.128;11.476;2024-01-30T13:53:08;21.50;35.10
12166;DHT22;6146;48.128;11.476;2024-01-30T13:55:34;21.30;36.20
12166;DHT22;6146;48.128;11.476;2024-01-30T13:58:00;21.10;36.30
12166;DHT22;6146;48.128;11.476;2024-01-30T14:00:27;20.80;37.60
12166;DHT22;6146;48.128;11.476;2024-01-30T14:02:52;20.50;37.40
12166;DHT22;6146;48.128;11.476;2024-01-30T14:05:20;20.30;38.30
12166;DHT22;6146;48.128;11.476;2024-01-30T14:07:47;20.10;39.10
12166;DHT22;6146;48.128;11.476;2024-01-30T14:10:12;19.80;39.50
12166;DHT22;6146;48.128;11.476;2024-01-30T14:12:38;19.40;40.20
12166;DHT22;6146;48.128;11.476;2024-01-30T14:15:04;18.70;41.60
12166;DHT22;6146;48.128;11.476;2024-01-30T14:17:30;18.30;42.70
12166;DHT22;6146;48.128;11.476;2024-01-30T14:19:56;19.10;44.60
12166;DHT22;6146;48.128;11.476;2024-01-30T14:22:22;17.80;44.60
12166;DHT22;6146;48.128;11.476;2024-01-30T14:24:47;17.90;44.70
12166;DHT22;6146;48.128;11.476;2024-01-30T14:27:13;17.80;45.30
12166;DHT22;6146;48.128;11.476;2024-01-30T14:29:38;17.80;45.20
12166;DHT22;6146;48.128;11.476;2024-01-30T14:32:04;17.60;46.40
12166;DHT22;6146;48.128;11.476;2024-01-30T14:34:30;17.50;46.40
12166;DHT22;6146;48.128;11.476;2024-01-30T14:36:56;17.30;47.30
12166;DHT22;6146;48.128;11.476;2024-01-30T14:39:22;17.10;46.20
12166;DHT22;6146;48.128;11.476;2024-01-30T14:41:47;16.80;47.10
12166;DHT22;6146;48.128;11.476;2024-01-30T14:44:13;16.70;47.60
12166;DHT22;6146;48.128;11.476;2024-01-30T14:46:39;16.60;48.10
12166;DHT22;6146;48.128;11.476;2024-01-30T14:49:05;16.50;48.30
12166;DHT22;6146;48.128;11.476;2024-01-30T14:51:32;16.40;47.90
12166;DHT22;6146;48.128;11.476;2024-01-30T14:53:59;16.60;48.20
12166;DHT22;6146;48.128;11.476;2024-01-30T14:56:24;16.60;48.30
12166;DHT22;6146;48.128;11.476;2024-01-30T14:58:50;16.70;47.90
12166;DHT22;6146;48.128;11.476;2024-01-30T15:01:16;16.80;48.20
12166;DHT22;6146;48.128;11.476;2024-01-30T15:03:41;16.70;48.80
12166;DHT22;6146;48.128;11.476;2024-01-30T15:06:08;16.50;48.70
12166;DHT22;6146;48.128;11.476;2024-01-30T15:08:34;16.20;49.50
12166;DHT22;6146;48.128;11.476;2024-01-30T15:11:00;15.80;50.00
12166;DHT22;6146;48.128;11.476;2024-01-30T15:13:26;15.40;51.20
12166;DHT22;6146;48.128;11.476;2024-01-30T15:15:51;15.00;52.10
12166;DHT22;6146;48.128;11.476;2024-01-30T15:18:17;14.70;52.90
12166;DHT22;6146;48.128;11.476;2024-01-30T15:20:42;14.70;53.70
12166;DHT22;6146;48.128;11.476;2024-01-30T15:23:08;14.30;53.90
12166;DHT22;6146;48.128;11.476;2024-01-30T15:25:33;14.10;54.00